sensor_id;sensor_type;location;lat;lon;timestamp;P1;durP1;ratioP1;P2;durP2;ratioP2
71496;SDS011;59317;53.218;5.730;2022-12-20T00:01:19;9.93;;;4.30;;
71496;SDS011;59317;53.218;5.730;2022-12-20T00:03:47;8.48;;;4.15;;
71496;SDS011;59317;53.218;5.730;2022-12-20T00:06:14;8.98;;;3.90;;
71496;SDS011;59317;53.218;5.730;2022-12-20T00:08:40;8.97;;;4.10;;
71496;SDS011;59317;53.218;5.730;2022-12-20T00:11:06;8.60;;;3.70;;
71496;SDS011;59317;53.218;5.730;2022-12-20T00:13:33;9.60;;;3.60;;
71496;SDS011;59317;53.218;5.730;2022-12-20T00:16:06;8.17;;;3.27;;
71496;SDS011;59317;53.218;5.730;2022-12-20T00:18:33;7.47;;;3.72;;
71496;SDS011;59317;53.218;5.730;2022-12-20T00:20:59;7.57;;;3.72;;
71496;SDS011;59317;53.218;5.730;2022-12-20T00:23:25;7.75;;;3.60;;
71496;SDS011;59317;53.218;5.730;2022-12-20T00:25:58;8.57;;;3.72;;
71496;SDS011;59317;53.218;5.730;2022-12-20T00:28:24;7.90;;;3.80;;
71496;SDS011;59317;53.218;5.730;2022-12-20T00:30:54;9.37;;;3.70;;
71496;SDS011;59317;53.218;5.730;2022-12-20T00:33:20;8.32;;;3.72;;
71496;SDS011;59317;53.218;5.730;2022-12-20T00:35:46;7.57;;;3.65;;
71496;SDS011;59317;53.218;5.730;2022-12-20T00:38:12;9.43;;;3.85;;
71496;SDS011;59317;53.218;5.730;2022-12-20T00:40:38;7.60;;;3.40;;
71496;SDS011;59317;53.218;5.730;2022-12-20T00:43:05;9.07;;;3.83;;
71496;SDS011;59317;53.218;5.730;2022-12-20T00:45:31;8.75;;;3.58;;
71496;SDS011;59317;53.218;5.730;2022-12-20T00:47:57;9.23;;;3.85;;
71496;SDS011;59317;53.218;5.730;2022-12-20T00:50:23;8.43;;;3.47;;
71496;SDS011;59317;53.218;5.730;2022-12-20T00:52:49;8.57;;;3.85;;
71496;SDS011;59317;53.218;5.730;2022-12-20T00:55:15;8.02;;;3.30;;
71496;SDS011;59317;53.218;5.730;2022-12-20T00:57:41;8.30;;;3.35;;
71496;SDS011;59317;53.218;5.730;2022-12-20T01:00:07;8.38;;;3.63;;
71496;SDS011;59317;53.218;5.730;2022-12-20T01:02:34;7.45;;;3.50;;
71496;SDS011;59317;53.218;5.730;2022-12-20T01:04:59;7.88;;;3.58;;
71496;SDS011;59317;53.218;5.730;2022-12-20T01:07:25;10.05;;;3.90;;
71496;SDS011;59317;53.218;5.730;2022-12-20T01:09:52;7.28;;;3.40;;
71496;SDS011;59317;53.218;5.730;2022-12-20T01:12:18;7.73;;;3.50;;
71496;SDS011;59317;53.218;5.730;2022-12-20T01:14:44;8.67;;;3.60;;
71496;SDS011;59317;53.218;5.730;2022-12-20T01:17:10;8.93;;;3.77;;
71496;SDS011;59317;53.218;5.730;2022-12-20T01:19:36;8.63;;;3.47;;
71496;SDS011;59317;53.218;5.730;2022-12-20T01:22:02;8.02;;;3.47;;
71496;SDS011;59317;53.218;5.730;2022-12-20T01:24:28;7.88;;;3.20;;
71496;SDS011;59317;53.218;5.730;2022-12-20T01:26:54;7.40;;;3.40;;
71496;SDS011;59317;53.218;5.730;2022-12-20T01:29:20;9.93;;;3.58;;
71496;SDS011;59317;53.218;5.730;2022-12-20T01:31:46;7.88;;;3.42;;
71496;SDS011;59317;53.218;5.730;2022-12-20T01:34:12;7.97;;;3.28;;
71496;SDS011;59317;53.218;5.730;2022-12-20T01:36:39;10.25;;;3.80;;
71496;SDS011;59317;53.218;5.730;2022-12-20T01:39:13;8.52;;;3.45;;
71496;SDS011;59317;53.218;5.730;2022-12-20T01:41:40;7.65;;;3.60;;
71496;SDS011;59317;53.218;5.730;2022-12-20T01:44:49;8.80;;;3.50;;
71496;SDS011;59317;53.218;5.730;2022-12-20T01:46:52;7.15;;;3.40;;
71496;SDS011;59317;53.218;5.730;2022-12-20T01:51:49;8.52;;;3.47;;
71496;SDS011;59317;53.218;5.730;2022-12-20T01:54:18;7.40;;;3.42;;
71496;SDS011;59317;53.218;5.730;2022-12-20T01:56:46;8.10;;;3.38;;
71496;SDS011;59317;53.218;5.730;2022-12-20T01:59:13;7.72;;;3.60;;
71496;SDS011;59317;53.218;5.730;2022-12-20T02:01:40;8.35;;;3.53;;
71496;SDS011;59317;53.218;5.730;2022-12-20T02:04:06;7.90;;;3.47;;
71496;SDS011;59317;53.218;5.730;2022-12-20T02:06:32;7.93;;;3.50;;
71496;SDS011;59317;53.218;5.730;2022-12-20T02:08:58;8.43;;;3.70;;
71496;SDS011;59317;53.218;5.730;2022-12-20T02:16:39;8.88;;;3.70;;
71496;SDS011;59317;53.218;5.730;2022-12-20T02:21:44;8.88;;;3.30;;
71496;SDS011;59317;53.218;5.730;2022-12-20T02:24:17;8.77;;;3.57;;
71496;SDS011;59317;53.218;5.730;2022-12-20T02:27:11;8.88;;;3.72;;
71496;SDS011;59317;53.218;5.730;2022-12-20T02:32:27;8.73;;;3.90;;
71496;SDS011;59317;53.218;5.730;2022-12-20T02:34:55;7.78;;;3.55;;
71496;SDS011;59317;53.218;5.730;2022-12-20T02:37:21;8.98;;;3.67;;
71496;SDS011;59317;53.218;5.730;2022-12-20T02:39:47;9.05;;;3.97;;
71496;SDS011;59317;53.218;5.730;2022-12-20T02:42:20;8.27;;;3.57;;
71496;SDS011;59317;53.218;5.730;2022-12-20T02:44:49;10.63;;;3.97;;
71496;SDS011;59317;53.218;5.730;2022-12-20T02:47:37;8.05;;;3.90;;
71496;SDS011;59317;53.218;5.730;2022-12-20T02:50:05;7.82;;;3.70;;
71496;SDS011;59317;53.218;5.730;2022-12-20T02:52:32;8.07;;;4.00;;
71496;SDS011;59317;53.218;5.730;2022-12-20T02:54:58;8.52;;;3.67;;
71496;SDS011;59317;53.218;5.730;2022-12-20T02:59:59;8.80;;;4.00;;
71496;SDS011;59317;53.218;5.730;2022-12-20T03:02:27;7.45;;;3.75;;
71496;SDS011;59317;53.218;5.730;2022-12-20T03:04:53;9.82;;;4.20;;
71496;SDS011;59317;53.218;5.730;2022-12-20T03:07:20;7.68;;;3.70;;
71496;SDS011;59317;53.218;5.730;2022-12-20T03:09:46;9.82;;;3.92;;
71496;SDS011;59317;53.218;5.730;2022-12-20T03:12:13;8.85;;;3.75;;
71496;SDS011;59317;53.218;5.730;2022-12-20T03:14:40;8.20;;;4.03;;
71496;SDS011;59317;53.218;5.730;2022-12-20T03:17:06;9.18;;;4.10;;
71496;SDS011;59317;53.218;5.730;2022-12-20T03:19:32;8.35;;;3.60;;
71496;SDS011;59317;53.218;5.730;2022-12-20T03:21:58;9.60;;;4.00;;
71496;SDS011;59317;53.218;5.730;2022-12-20T03:24:24;8.75;;;4.28;;
71496;SDS011;59317;53.218;5.730;2022-12-20T03:26:50;8.38;;;3.75;;
71496;SDS011;59317;53.218;5.730;2022-12-20T03:29:16;7.55;;;3.83;;
71496;SDS011;59317;53.218;5.730;2022-12-20T03:31:42;9.88;;;3.60;;
71496;SDS011;59317;53.218;5.730;2022-12-20T03:34:08;9.23;;;3.67;;
71496;SDS011;59317;53.218;5.730;2022-12-20T03:36:34;8.57;;;3.72;;
71496;SDS011;59317;53.218;5.730;2022-12-20T03:39:01;7.93;;;3.13;;
71496;SDS011;59317;53.218;5.730;2022-12-20T03:41:27;8.25;;;3.75;;
71496;SDS011;59317;53.218;5.730;2022-12-20T03:43:53;8.50;;;3.80;;
71496;SDS011;59317;53.218;5.730;2022-12-20T03:46:19;8.35;;;3.50;;
71496;SDS011;59317;53.218;5.730;2022-12-20T03:48:45;7.07;;;3.28;;
71496;SDS011;59317;53.218;5.730;2022-12-20T03:51:11;8.68;;;3.85;;
71496;SDS011;59317;53.218;5.730;2022-12-20T03:53:38;7.82;;;3.00;;
71496;SDS011;59317;53.218;5.730;2022-12-20T03:56:04;7.95;;;3.95;;
71496;SDS011;59317;53.218;5.730;2022-12-20T03:58:36;9.10;;;3.50;;
71496;SDS011;59317;53.218;5.730;2022-12-20T04:01:07;8.45;;;3.35;;
71496;SDS011;59317;53.218;5.730;2022-12-20T04:03:40;8.70;;;3.85;;
71496;SDS011;59317;53.218;5.730;2022-12-20T04:06:06;6.97;;;3.20;;
71496;SDS011;59317;53.218;5.730;2022-12-20T04:08:32;7.60;;;3.40;;
71496;SDS011;59317;53.218;5.730;2022-12-20T04:10:58;9.10;;;3.43;;
71496;SDS011;59317;53.218;5.730;2022-12-20T04:13:52;8.48;;;3.30;;
71496;SDS011;59317;53.218;5.730;2022-12-20T04:16:23;7.10;;;3.20;;
71496;SDS011;59317;53.218;5.730;2022-12-20T04:18:49;7.95;;;3.50;;
71496;SDS011;59317;53.218;5.730;2022-12-20T04:21:19;8.05;;;3.67;;
71496;SDS011;59317;53.218;5.730;2022-12-20T04:23:46;7.10;;;3.10;;
71496;SDS011;59317;53.218;5.730;2022-12-20T04:26:12;7.75;;;3.70;;
71496;SDS011;59317;53.218;5.730;2022-12-20T04:28:38;8.55;;;3.60;;
71496;SDS011;59317;53.218;5.730;2022-12-20T04:31:04;7.93;;;3.72;;
71496;SDS011;59317;53.218;5.730;2022-12-20T04:33:30;8.50;;;3.58;;
71496;SDS011;59317;53.218;5.730;2022-12-20T04:35:56;7.28;;;3.45;;
71496;SDS011;59317;53.218;5.730;2022-12-20T04:38:23;10.02;;;4.03;;
71496;SDS011;59317;53.218;5.730;2022-12-20T04:40:49;7.97;;;3.42;;
71496;SDS011;59317;53.218;5.730;2022-12-20T04:43:16;9.32;;;3.55;;
71496;SDS011;59317;53.218;5.730;2022-12-20T04:45:43;7.70;;;3.40;;
71496;SDS011;59317;53.218;5.730;2022-12-20T04:48:10;8.65;;;3.90;;
71496;SDS011;59317;53.218;5.730;2022-12-20T04:50:36;8.05;;;3.20;;
71496;SDS011;59317;53.218;5.730;2022-12-20T04:53:02;8.50;;;3.60;;
71496;SDS011;59317;53.218;5.730;2022-12-20T04:55:47;7.32;;;3.38;;
71496;SDS011;59317;53.218;5.730;2022-12-20T04:58:13;7.00;;;3.20;;
71496;SDS011;59317;53.218;5.730;2022-12-20T05:00:39;7.80;;;3.03;;
71496;SDS011;59317;53.218;5.730;2022-12-20T05:03:05;8.00;;;3.03;;
71496;SDS011;59317;53.218;5.730;2022-12-20T05:05:31;7.53;;;3.10;;
71496;SDS011;59317;53.218;5.730;2022-12-20T05:07:57;7.10;;;3.20;;
71496;SDS011;59317;53.218;5.730;2022-12-20T05:10:23;7.43;;;2.77;;
71496;SDS011;59317;53.218;5.730;2022-12-20T05:12:49;6.77;;;3.10;;
71496;SDS011;59317;53.218;5.730;2022-12-20T05:15:15;7.45;;;3.28;;
71496;SDS011;59317;53.218;5.730;2022-12-20T05:17:41;6.87;;;3.03;;
71496;SDS011;59317;53.218;5.730;2022-12-20T05:20:07;8.17;;;3.33;;
71496;SDS011;59317;53.218;5.730;2022-12-20T05:22:33;8.57;;;3.10;;
71496;SDS011;59317;53.218;5.730;2022-12-20T05:25:18;8.43;;;3.30;;
71496;SDS011;59317;53.218;5.730;2022-12-20T05:28:03;7.28;;;3.17;;
71496;SDS011;59317;53.218;5.730;2022-12-20T05:30:29;7.90;;;3.23;;
71496;SDS011;59317;53.218;5.730;2022-12-20T05:32:55;6.83;;;2.70;;
71496;SDS011;59317;53.218;5.730;2022-12-20T05:35:21;7.38;;;2.83;;
71496;SDS011;59317;53.218;5.730;2022-12-20T05:37:47;6.60;;;2.70;;
71496;SDS011;59317;53.218;5.730;2022-12-20T05:40:13;8.40;;;3.20;;
71496;SDS011;59317;53.218;5.730;2022-12-20T05:42:40;7.78;;;2.90;;
71496;SDS011;59317;53.218;5.730;2022-12-20T05:45:06;6.60;;;2.90;;
71496;SDS011;59317;53.218;5.730;2022-12-20T05:47:32;7.40;;;3.20;;
71496;SDS011;59317;53.218;5.730;2022-12-20T05:49:58;7.38;;;3.20;;
71496;SDS011;59317;53.218;5.730;2022-12-20T05:52:24;7.97;;;3.10;;
71496;SDS011;59317;53.218;5.730;2022-12-20T05:54:51;8.30;;;3.20;;
71496;SDS011;59317;53.218;5.730;2022-12-20T05:57:17;7.35;;;3.10;;
71496;SDS011;59317;53.218;5.730;2022-12-20T05:59:43;8.02;;;3.33;;
71496;SDS011;59317;53.218;5.730;2022-12-20T06:02:10;6.83;;;3.23;;
71496;SDS011;59317;53.218;5.730;2022-12-20T06:04:36;7.05;;;3.33;;
71496;SDS011;59317;53.218;5.730;2022-12-20T06:07:02;8.35;;;3.40;;
71496;SDS011;59317;53.218;5.730;2022-12-20T06:09:29;7.43;;;2.95;;
71496;SDS011;59317;53.218;5.730;2022-12-20T06:11:55;7.70;;;3.40;;
71496;SDS011;59317;53.218;5.730;2022-12-20T06:14:22;7.17;;;3.13;;
71496;SDS011;59317;53.218;5.730;2022-12-20T06:16:48;7.25;;;3.30;;
71496;SDS011;59317;53.218;5.730;2022-12-20T06:19:14;7.30;;;3.30;;
71496;SDS011;59317;53.218;5.730;2022-12-20T06:21:40;7.80;;;3.40;;
71496;SDS011;59317;53.218;5.730;2022-12-20T06:24:06;7.32;;;3.60;;
71496;SDS011;59317;53.218;5.730;2022-12-20T06:26:32;9.20;;;4.03;;
71496;SDS011;59317;53.218;5.730;2022-12-20T06:29:03;8.63;;;3.88;;
71496;SDS011;59317;53.218;5.730;2022-12-20T06:31:31;8.10;;;4.10;;
71496;SDS011;59317;53.218;5.730;2022-12-20T06:33:57;8.95;;;4.85;;
71496;SDS011;59317;53.218;5.730;2022-12-20T06:36:24;8.93;;;5.20;;
71496;SDS011;59317;53.218;5.730;2022-12-20T06:38:50;9.77;;;4.90;;
71496;SDS011;59317;53.218;5.730;2022-12-20T06:41:22;10.30;;;5.40;;
71496;SDS011;59317;53.218;5.730;2022-12-20T06:43:54;9.93;;;5.78;;
71496;SDS011;59317;53.218;5.730;2022-12-20T06:46:20;11.02;;;5.93;;
71496;SDS011;59317;53.218;5.730;2022-12-20T06:48:46;11.50;;;6.30;;
71496;SDS011;59317;53.218;5.730;2022-12-20T06:51:12;12.02;;;6.55;;
71496;SDS011;59317;53.218;5.730;2022-12-20T06:53:38;11.23;;;6.70;;
71496;SDS011;59317;53.218;5.730;2022-12-20T06:56:04;12.13;;;7.00;;
71496;SDS011;59317;53.218;5.730;2022-12-20T06:58:31;10.35;;;6.15;;
71496;SDS011;59317;53.218;5.730;2022-12-20T07:00:57;9.85;;;5.88;;
71496;SDS011;59317;53.218;5.730;2022-12-20T07:03:23;12.15;;;6.28;;
71496;SDS011;59317;53.218;5.730;2022-12-20T07:05:50;11.07;;;5.80;;
71496;SDS011;59317;53.218;5.730;2022-12-20T07:08:20;9.60;;;5.15;;
71496;SDS011;59317;53.218;5.730;2022-12-20T07:10:47;11.55;;;5.32;;
71496;SDS011;59317;53.218;5.730;2022-12-20T07:13:13;10.88;;;4.88;;
71496;SDS011;59317;53.218;5.730;2022-12-20T07:15:39;11.20;;;5.78;;
71496;SDS011;59317;53.218;5.730;2022-12-20T07:18:12;11.07;;;5.68;;
71496;SDS011;59317;53.218;5.730;2022-12-20T07:20:44;11.50;;;5.10;;
71496;SDS011;59317;53.218;5.730;2022-12-20T07:23:10;9.13;;;5.10;;
71496;SDS011;59317;53.218;5.730;2022-12-20T07:25:36;8.90;;;4.57;;
71496;SDS011;59317;53.218;5.730;2022-12-20T07:28:02;10.00;;;4.80;;
71496;SDS011;59317;53.218;5.730;2022-12-20T07:30:29;10.00;;;4.80;;
71496;SDS011;59317;53.218;5.730;2022-12-20T07:32:55;9.50;;;4.72;;
71496;SDS011;59317;53.218;5.730;2022-12-20T07:35:21;9.93;;;4.70;;
71496;SDS011;59317;53.218;5.730;2022-12-20T07:37:47;10.63;;;5.00;;
71496;SDS011;59317;53.218;5.730;2022-12-20T07:40:13;9.97;;;5.13;;
71496;SDS011;59317;53.218;5.730;2022-12-20T07:42:40;8.93;;;4.33;;
71496;SDS011;59317;53.218;5.730;2022-12-20T07:45:06;9.32;;;4.53;;
71496;SDS011;59317;53.218;5.730;2022-12-20T07:47:32;9.50;;;4.22;;
71496;SDS011;59317;53.218;5.730;2022-12-20T07:49:59;8.10;;;4.32;;
71496;SDS011;59317;53.218;5.730;2022-12-20T07:52:25;9.55;;;3.95;;
71496;SDS011;59317;53.218;5.730;2022-12-20T07:54:53;8.27;;;3.67;;
71496;SDS011;59317;53.218;5.730;2022-12-20T07:57:25;8.38;;;4.10;;
71496;SDS011;59317;53.218;5.730;2022-12-20T07:59:53;8.95;;;4.20;;
71496;SDS011;59317;53.218;5.730;2022-12-20T08:02:37;8.10;;;3.45;;
71496;SDS011;59317;53.218;5.730;2022-12-20T08:05:04;7.97;;;3.65;;
71496;SDS011;59317;53.218;5.730;2022-12-20T08:07:31;9.00;;;3.70;;
71496;SDS011;59317;53.218;5.730;2022-12-20T08:09:57;7.65;;;3.40;;
71496;SDS011;59317;53.218;5.730;2022-12-20T08:12:25;6.63;;;3.33;;
71496;SDS011;59317;53.218;5.730;2022-12-20T08:14:54;7.80;;;3.20;;
71496;SDS011;59317;53.218;5.730;2022-12-20T08:17:20;7.30;;;3.00;;
71496;SDS011;59317;53.218;5.730;2022-12-20T08:19:46;6.25;;;2.53;;
71496;SDS011;59317;53.218;5.730;2022-12-20T08:22:15;8.15;;;3.15;;
71496;SDS011;59317;53.218;5.730;2022-12-20T08:24:42;7.88;;;3.20;;
71496;SDS011;59317;53.218;5.730;2022-12-20T08:27:08;7.53;;;3.20;;
71496;SDS011;59317;53.218;5.730;2022-12-20T08:29:34;8.27;;;3.17;;
71496;SDS011;59317;53.218;5.730;2022-12-20T08:32:00;7.97;;;3.17;;
71496;SDS011;59317;53.218;5.730;2022-12-20T08:34:26;9.57;;;3.10;;
71496;SDS011;59317;53.218;5.730;2022-12-20T08:36:52;6.77;;;2.83;;
71496;SDS011;59317;53.218;5.730;2022-12-20T08:39:18;8.50;;;3.23;;
71496;SDS011;59317;53.218;5.730;2022-12-20T08:41:44;6.53;;;3.23;;
71496;SDS011;59317;53.218;5.730;2022-12-20T08:44:10;7.17;;;3.10;;
71496;SDS011;59317;53.218;5.730;2022-12-20T08:46:36;7.07;;;3.10;;
71496;SDS011;59317;53.218;5.730;2022-12-20T08:49:03;7.30;;;3.27;;
71496;SDS011;59317;53.218;5.730;2022-12-20T08:51:32;7.68;;;2.92;;
71496;SDS011;59317;53.218;5.730;2022-12-20T08:53:58;6.73;;;2.90;;
71496;SDS011;59317;53.218;5.730;2022-12-20T08:56:24;7.15;;;2.90;;
71496;SDS011;59317;53.218;5.730;2022-12-20T08:58:50;8.07;;;2.60;;
71496;SDS011;59317;53.218;5.730;2022-12-20T09:01:17;7.22;;;2.72;;
71496;SDS011;59317;53.218;5.730;2022-12-20T09:03:47;7.55;;;2.75;;
71496;SDS011;59317;53.218;5.730;2022-12-20T09:06:16;6.53;;;2.67;;
71496;SDS011;59317;53.218;5.730;2022-12-20T09:08:43;6.57;;;2.50;;
71496;SDS011;59317;53.218;5.730;2022-12-20T09:11:13;6.03;;;2.20;;
71496;SDS011;59317;53.218;5.730;2022-12-20T09:13:40;7.32;;;2.50;;
71496;SDS011;59317;53.218;5.730;2022-12-20T09:16:07;6.38;;;2.10;;
71496;SDS011;59317;53.218;5.730;2022-12-20T09:18:33;6.35;;;2.40;;
71496;SDS011;59317;53.218;5.730;2022-12-20T09:21:03;6.15;;;2.33;;
71496;SDS011;59317;53.218;5.730;2022-12-20T09:23:29;6.10;;;2.40;;
71496;SDS011;59317;53.218;5.730;2022-12-20T09:26:00;6.97;;;2.33;;
71496;SDS011;59317;53.218;5.730;2022-12-20T09:28:26;6.78;;;2.13;;
71496;SDS011;59317;53.218;5.730;2022-12-20T09:30:56;6.38;;;2.10;;
71496;SDS011;59317;53.218;5.730;2022-12-20T09:33:22;7.07;;;2.35;;
71496;SDS011;59317;53.218;5.730;2022-12-20T09:35:48;6.45;;;2.13;;
71496;SDS011;59317;53.218;5.730;2022-12-20T09:38:14;6.03;;;1.98;;
71496;SDS011;59317;53.218;5.730;2022-12-20T09:40:44;6.95;;;2.10;;
71496;SDS011;59317;53.218;5.730;2022-12-20T09:43:10;6.40;;;2.22;;
71496;SDS011;59317;53.218;5.730;2022-12-20T09:45:37;6.97;;;2.40;;
71496;SDS011;59317;53.218;5.730;2022-12-20T09:48:03;6.63;;;2.42;;
71496;SDS011;59317;53.218;5.730;2022-12-20T09:53:34;5.88;;;2.33;;
71496;SDS011;59317;53.218;5.730;2022-12-20T09:56:04;8.13;;;2.25;;
71496;SDS011;59317;53.218;5.730;2022-12-20T10:01:10;6.15;;;2.45;;
71496;SDS011;59317;53.218;5.730;2022-12-20T10:03:39;7.30;;;2.43;;
71496;SDS011;59317;53.218;5.730;2022-12-20T10:06:24;6.27;;;2.47;;
71496;SDS011;59317;53.218;5.730;2022-12-20T10:09:04;6.47;;;2.33;;
71496;SDS011;59317;53.218;5.730;2022-12-20T10:21:34;7.28;;;2.58;;
71496;SDS011;59317;53.218;5.730;2022-12-20T10:24:18;6.65;;;2.63;;
71496;SDS011;59317;53.218;5.730;2022-12-20T10:26:47;6.30;;;2.42;;
71496;SDS011;59317;53.218;5.730;2022-12-20T10:29:14;7.20;;;2.60;;
71496;SDS011;59317;53.218;5.730;2022-12-20T10:31:40;7.57;;;2.50;;
71496;SDS011;59317;53.218;5.730;2022-12-20T10:34:06;6.85;;;2.55;;
71496;SDS011;59317;53.218;5.730;2022-12-20T10:36:33;7.63;;;2.50;;
71496;SDS011;59317;53.218;5.730;2022-12-20T10:39:01;6.53;;;2.50;;
71496;SDS011;59317;53.218;5.730;2022-12-20T10:41:45;6.53;;;2.33;;
71496;SDS011;59317;53.218;5.730;2022-12-20T10:46:46;7.30;;;2.63;;
71496;SDS011;59317;53.218;5.730;2022-12-20T10:49:27;6.22;;;2.30;;
71496;SDS011;59317;53.218;5.730;2022-12-20T10:51:55;8.30;;;2.75;;
71496;SDS011;59317;53.218;5.730;2022-12-20T10:54:23;7.53;;;2.80;;
71496;SDS011;59317;53.218;5.730;2022-12-20T10:56:56;6.75;;;2.50;;
71496;SDS011;59317;53.218;5.730;2022-12-20T10:59:27;7.80;;;2.95;;
71496;SDS011;59317;53.218;5.730;2022-12-20T11:01:55;6.00;;;2.58;;
71496;SDS011;59317;53.218;5.730;2022-12-20T11:04:28;7.38;;;2.40;;
71496;SDS011;59317;53.218;5.730;2022-12-20T11:06:55;7.78;;;2.85;;
71496;SDS011;59317;53.218;5.730;2022-12-20T11:09:23;7.07;;;2.70;;
71496;SDS011;59317;53.218;5.730;2022-12-20T11:11:55;8.80;;;3.13;;
71496;SDS011;59317;53.218;5.730;2022-12-20T11:14:22;7.45;;;3.15;;
71496;SDS011;59317;53.218;5.730;2022-12-20T11:16:48;7.38;;;2.80;;
71496;SDS011;59317;53.218;5.730;2022-12-20T11:24:34;7.90;;;3.40;;
71496;SDS011;59317;53.218;5.730;2022-12-20T11:27:15;8.38;;;3.75;;
71496;SDS011;59317;53.218;5.730;2022-12-20T11:37:36;7.97;;;4.05;;
71496;SDS011;59317;53.218;5.730;2022-12-20T11:40:24;9.07;;;4.25;;
71496;SDS011;59317;53.218;5.730;2022-12-20T11:43:39;9.03;;;3.77;;
71496;SDS011;59317;53.218;5.730;2022-12-20T11:56:08;9.73;;;4.72;;
71496;SDS011;59317;53.218;5.730;2022-12-20T11:58:46;12.05;;;6.13;;
71496;SDS011;59317;53.218;5.730;2022-12-20T12:01:15;10.83;;;5.67;;
71496;SDS011;59317;53.218;5.730;2022-12-20T12:06:24;10.38;;;6.20;;
71496;SDS011;59317;53.218;5.730;2022-12-20T12:08:57;8.38;;;4.65;;
71496;SDS011;59317;53.218;5.730;2022-12-20T12:11:30;10.67;;;5.67;;
71496;SDS011;59317;53.218;5.730;2022-12-20T12:13:58;11.77;;;6.32;;
71496;SDS011;59317;53.218;5.730;2022-12-20T12:16:27;9.60;;;5.88;;
71496;SDS011;59317;53.218;5.730;2022-12-20T12:18:56;10.82;;;6.40;;
71496;SDS011;59317;53.218;5.730;2022-12-20T12:21:23;10.80;;;6.82;;
71496;SDS011;59317;53.218;5.730;2022-12-20T12:26:29;11.27;;;7.45;;
71496;SDS011;59317;53.218;5.730;2022-12-20T12:28:57;12.90;;;6.95;;
71496;SDS011;59317;53.218;5.730;2022-12-20T12:46:58;11.40;;;6.73;;
71496;SDS011;59317;53.218;5.730;2022-12-20T12:49:28;14.77;;;8.27;;
71496;SDS011;59317;53.218;5.730;2022-12-20T12:51:57;13.75;;;8.05;;
71496;SDS011;59317;53.218;5.730;2022-12-20T12:56:50;15.27;;;8.40;;
71496;SDS011;59317;53.218;5.730;2022-12-20T12:59:19;13.15;;;7.85;;
71496;SDS011;59317;53.218;5.730;2022-12-20T13:01:47;14.32;;;8.23;;
71496;SDS011;59317;53.218;5.730;2022-12-20T13:06:52;12.75;;;7.63;;
71496;SDS011;59317;53.218;5.730;2022-12-20T13:11:49;16.23;;;10.00;;
71496;SDS011;59317;53.218;5.730;2022-12-20T13:19:36;15.13;;;11.23;;
71496;SDS011;59317;53.218;5.730;2022-12-20T13:22:14;15.75;;;10.50;;
71496;SDS011;59317;53.218;5.730;2022-12-20T13:40:38;15.93;;;9.00;;
71496;SDS011;59317;53.218;5.730;2022-12-20T13:45:39;19.90;;;11.48;;
71496;SDS011;59317;53.218;5.730;2022-12-20T13:48:09;19.17;;;11.20;;
71496;SDS011;59317;53.218;5.730;2022-12-20T13:50:38;17.67;;;10.48;;
71496;SDS011;59317;53.218;5.730;2022-12-20T13:53:05;19.13;;;10.65;;
71496;SDS011;59317;53.218;5.730;2022-12-20T13:58:11;18.17;;;10.38;;
71496;SDS011;59317;53.218;5.730;2022-12-20T14:00:38;20.52;;;13.23;;
71496;SDS011;59317;53.218;5.730;2022-12-20T14:03:04;19.00;;;12.47;;
71496;SDS011;59317;53.218;5.730;2022-12-20T14:05:33;18.50;;;11.18;;
71496;SDS011;59317;53.218;5.730;2022-12-20T14:08:02;19.30;;;12.23;;
71496;SDS011;59317;53.218;5.730;2022-12-20T14:10:30;19.83;;;12.60;;
71496;SDS011;59317;53.218;5.730;2022-12-20T14:12:56;21.02;;;13.68;;
71496;SDS011;59317;53.218;5.730;2022-12-20T14:15:33;21.45;;;13.52;;
71496;SDS011;59317;53.218;5.730;2022-12-20T14:18:15;20.70;;;12.68;;
71496;SDS011;59317;53.218;5.730;2022-12-20T14:20:44;23.48;;;14.73;;
71496;SDS011;59317;53.218;5.730;2022-12-20T14:23:16;20.67;;;12.87;;
71496;SDS011;59317;53.218;5.730;2022-12-20T14:25:51;19.95;;;13.32;;
71496;SDS011;59317;53.218;5.730;2022-12-20T14:30:46;20.92;;;13.15;;
71496;SDS011;59317;53.218;5.730;2022-12-20T14:33:45;22.27;;;14.00;;
71496;SDS011;59317;53.218;5.730;2022-12-20T14:38:43;23.88;;;12.95;;
71496;SDS011;59317;53.218;5.730;2022-12-20T14:43:55;22.83;;;13.07;;
71496;SDS011;59317;53.218;5.730;2022-12-20T14:46:21;24.05;;;14.10;;
71496;SDS011;59317;53.218;5.730;2022-12-20T14:48:47;24.50;;;14.80;;
71496;SDS011;59317;53.218;5.730;2022-12-20T14:51:20;24.10;;;14.47;;
71496;SDS011;59317;53.218;5.730;2022-12-20T14:53:47;22.30;;;13.27;;
71496;SDS011;59317;53.218;5.730;2022-12-20T14:56:14;25.88;;;15.52;;
71496;SDS011;59317;53.218;5.730;2022-12-20T14:58:42;25.55;;;13.70;;
71496;SDS011;59317;53.218;5.730;2022-12-20T15:04:01;23.83;;;13.48;;
71496;SDS011;59317;53.218;5.730;2022-12-20T15:06:33;25.95;;;15.55;;
71496;SDS011;59317;53.218;5.730;2022-12-20T15:08:59;26.10;;;14.70;;
71496;SDS011;59317;53.218;5.730;2022-12-20T15:11:26;27.27;;;15.13;;
71496;SDS011;59317;53.218;5.730;2022-12-20T15:13:52;27.30;;;15.65;;
71496;SDS011;59317;53.218;5.730;2022-12-20T15:18:46;27.35;;;14.57;;
71496;SDS011;59317;53.218;5.730;2022-12-20T15:21:13;25.27;;;14.65;;
71496;SDS011;59317;53.218;5.730;2022-12-20T15:23:41;27.57;;;14.57;;
71496;SDS011;59317;53.218;5.730;2022-12-20T15:26:10;26.38;;;13.75;;
71496;SDS011;59317;53.218;5.730;2022-12-20T15:28:37;25.50;;;13.48;;
71496;SDS011;59317;53.218;5.730;2022-12-20T15:31:03;22.98;;;12.93;;
71496;SDS011;59317;53.218;5.730;2022-12-20T15:33:29;26.55;;;14.80;;
71496;SDS011;59317;53.218;5.730;2022-12-20T15:35:57;23.58;;;13.00;;
71496;SDS011;59317;53.218;5.730;2022-12-20T15:38:24;27.77;;;14.68;;
71496;SDS011;59317;53.218;5.730;2022-12-20T15:40:52;24.30;;;14.10;;
71496;SDS011;59317;53.218;5.730;2022-12-20T15:43:19;26.17;;;14.25;;
71496;SDS011;59317;53.218;5.730;2022-12-20T15:45:53;24.63;;;13.85;;
71496;SDS011;59317;53.218;5.730;2022-12-20T15:48:20;26.92;;;13.88;;
71496;SDS011;59317;53.218;5.730;2022-12-20T15:50:51;27.47;;;14.03;;
71496;SDS011;59317;53.218;5.730;2022-12-20T15:53:19;27.97;;;14.33;;
71496;SDS011;59317;53.218;5.730;2022-12-20T15:55:48;33.05;;;14.73;;
71496;SDS011;59317;53.218;5.730;2022-12-20T15:58:14;29.65;;;14.20;;
71496;SDS011;59317;53.218;5.730;2022-12-20T16:00:40;29.77;;;14.90;;
71496;SDS011;59317;53.218;5.730;2022-12-20T16:03:11;28.55;;;14.77;;
71496;SDS011;59317;53.218;5.730;2022-12-20T16:05:38;29.70;;;15.55;;
71496;SDS011;59317;53.218;5.730;2022-12-20T16:08:04;30.92;;;16.05;;
71496;SDS011;59317;53.218;5.730;2022-12-20T16:10:31;30.65;;;16.73;;
71496;SDS011;59317;53.218;5.730;2022-12-20T16:12:57;36.13;;;18.10;;
71496;SDS011;59317;53.218;5.730;2022-12-20T16:15:23;38.85;;;18.48;;
71496;SDS011;59317;53.218;5.730;2022-12-20T16:17:49;39.63;;;18.07;;
71496;SDS011;59317;53.218;5.730;2022-12-20T16:20:16;43.53;;;18.35;;
71496;SDS011;59317;53.218;5.730;2022-12-20T16:22:43;41.33;;;19.08;;
71496;SDS011;59317;53.218;5.730;2022-12-20T16:25:21;39.07;;;20.10;;
71496;SDS011;59317;53.218;5.730;2022-12-20T16:27:49;42.63;;;19.30;;
71496;SDS011;59317;53.218;5.730;2022-12-20T16:30:15;41.65;;;19.30;;
71496;SDS011;59317;53.218;5.730;2022-12-20T16:32:41;46.55;;;19.63;;
71496;SDS011;59317;53.218;5.730;2022-12-20T16:35:29;48.65;;;19.67;;
71496;SDS011;59317;53.218;5.730;2022-12-20T16:37:54;54.47;;;21.42;;
71496;SDS011;59317;53.218;5.730;2022-12-20T16:40:21;49.40;;;20.30;;
71496;SDS011;59317;53.218;5.730;2022-12-20T16:42:48;52.15;;;20.58;;
71496;SDS011;59317;53.218;5.730;2022-12-20T16:45:23;56.60;;;21.20;;
71496;SDS011;59317;53.218;5.730;2022-12-20T16:47:49;53.70;;;21.10;;
71496;SDS011;59317;53.218;5.730;2022-12-20T16:50:17;52.28;;;21.98;;
71496;SDS011;59317;53.218;5.730;2022-12-20T16:52:44;56.08;;;22.25;;